createdAt,value
2023-05-11T00:02:12.691Z,42.83
2023-05-11T00:04:39.051Z,42.87
2023-05-11T00:07:05.434Z,42.80
2023-05-11T00:09:31.799Z,42.63
2023-05-11T00:11:58.104Z,42.56
2023-05-11T00:14:24.416Z,42.67
2023-05-11T00:16:50.745Z,42.91
2023-05-11T00:19:17.554Z,42.48
2023-05-11T00:21:44.056Z,42.53
2023-05-11T00:24:10.391Z,42.90
2023-05-11T00:26:36.774Z,42.68
2023-05-11T00:29:03.098Z,42.47
2023-05-11T00:31:30.519Z,42.56
2023-05-11T00:33:57.044Z,42.33
2023-05-11T00:36:23.356Z,42.55
2023-05-11T00:38:50.038Z,42.29
2023-05-11T00:41:16.547Z,42.63
2023-05-11T00:43:42.946Z,42.25
2023-05-11T00:46:09.261Z,42.63
2023-05-11T00:48:35.579Z,42.41
2023-05-11T00:51:02.086Z,42.48
2023-05-11T00:53:28.397Z,42.79
2023-05-11T00:55:54.717Z,42.64
2023-05-11T00:58:21.132Z,42.52
2023-05-11T01:00:48.015Z,42.69
2023-05-11T01:03:15.034Z,42.60
2023-05-11T01:05:41.530Z,42.49
2023-05-11T01:08:22.307Z,42.35
2023-05-11T01:10:49.420Z,42.67
2023-05-11T01:13:27.380Z,42.61
2023-05-11T01:15:55.891Z,42.27
2023-05-11T01:18:30.423Z,42.44
2023-05-11T01:20:57.346Z,42.46
2023-05-11T01:23:36.371Z,42.46
2023-05-11T01:26:09.903Z,42.26
2023-05-11T01:28:39.225Z,42.38
2023-05-11T01:31:11.800Z,42.35
2023-05-11T01:33:39.897Z,42.40
2023-05-11T01:36:07.452Z,42.36
2023-05-11T01:38:34.780Z,42.27
2023-05-11T01:41:01.156Z,42.44
2023-05-11T01:43:27.795Z,42.27
2023-05-11T01:45:54.836Z,42.34
2023-05-11T01:48:22.804Z,42.20
2023-05-11T01:50:49.429Z,42.37
2023-05-11T01:53:15.756Z,42.27
2023-05-11T01:55:42.138Z,42.23
2023-05-11T01:58:08.778Z,42.29
2023-05-11T02:00:35.157Z,42.48
2023-05-11T02:03:01.736Z,42.61
2023-05-11T02:05:28.452Z,42.38
2023-05-11T02:07:55.967Z,41.91
2023-05-11T02:10:23.009Z,42.04
2023-05-11T02:12:50.513Z,41.91
2023-05-11T02:15:16.831Z,41.82
2023-05-11T02:17:43.421Z,41.84
2023-05-11T02:20:09.843Z,41.88
2023-05-11T02:22:36.184Z,42.03
2023-05-11T02:25:02.896Z,41.88
2023-05-11T02:27:29.253Z,42.00
2023-05-11T02:29:55.580Z,42.13
2023-05-11T02:32:21.942Z,42.12
2023-05-11T02:34:50.021Z,41.92
2023-05-11T02:37:18.329Z,42.24
2023-05-11T02:39:45.698Z,42.08
2023-05-11T02:42:15.694Z,41.88
2023-05-11T02:44:44.487Z,42.08
2023-05-11T02:47:10.833Z,41.82
2023-05-11T02:49:37.162Z,41.75
2023-05-11T02:52:03.494Z,41.89
2023-05-11T02:54:29.793Z,41.55
2023-05-11T02:56:56.268Z,41.66
2023-05-11T02:59:22.962Z,41.76
2023-05-11T03:01:49.446Z,41.74
2023-05-11T03:04:15.884Z,41.65
2023-05-11T03:06:42.204Z,41.70
2023-05-11T03:09:10.003Z,41.69
2023-05-11T03:11:36.661Z,41.89
2023-05-11T03:14:03.194Z,41.61
2023-05-11T03:16:29.521Z,41.63
2023-05-11T03:18:56.037Z,41.65
2023-05-11T03:21:22.382Z,41.61
2023-05-11T03:23:48.763Z,41.69
2023-05-11T03:26:15.344Z,41.64
2023-05-11T03:28:41.681Z,41.60
2023-05-11T03:31:08.011Z,41.51
2023-05-11T03:33:34.392Z,41.56
2023-05-11T03:36:00.833Z,41.54
2023-05-11T03:38:27.247Z,41.39
2023-05-11T03:40:53.563Z,41.46
2023-05-11T03:43:19.978Z,41.43
2023-05-11T03:45:46.308Z,41.60
2023-05-11T03:48:13.123Z,41.50
2023-05-11T03:50:39.632Z,41.36
2023-05-11T03:53:06.286Z,41.65
2023-05-11T03:55:32.595Z,41.43
2023-05-11T03:57:58.924Z,41.57
2023-05-11T04:00:25.360Z,41.44
2023-05-11T04:02:51.776Z,41.55
2023-05-11T04:05:19.188Z,41.42
2023-05-11T04:07:45.516Z,41.47
2023-05-11T04:10:11.967Z,41.38
2023-05-11T04:12:38.270Z,41.47
2023-05-11T04:15:04.763Z,41.44
2023-05-11T04:17:31.113Z,41.21
2023-05-11T04:19:57.508Z,41.32
2023-05-11T04:22:23.919Z,41.33
2023-05-11T04:24:50.259Z,41.57
2023-05-11T04:27:16.580Z,41.28
2023-05-11T04:29:42.972Z,41.64
2023-05-11T04:32:09.291Z,41.35
2023-05-11T04:34:35.625Z,41.47
2023-05-11T04:37:07.101Z,41.63
2023-05-11T04:39:33.860Z,41.42
2023-05-11T04:42:00.418Z,41.54
2023-05-11T04:44:26.749Z,41.45
2023-05-11T04:46:56.132Z,41.62
2023-05-11T04:49:22.526Z,41.56
2023-05-11T04:51:48.852Z,41.54
2023-05-11T04:54:15.166Z,41.47
2023-05-11T04:56:41.493Z,41.36
2023-05-11T04:59:08.181Z,41.36
2023-05-11T05:01:34.767Z,41.33
2023-05-11T05:04:01.496Z,41.53
2023-05-11T05:06:27.832Z,41.34
2023-05-11T05:08:54.140Z,41.31
2023-05-11T05:11:21.552Z,41.41
2023-05-11T05:13:47.876Z,41.37
2023-05-11T05:16:14.332Z,41.45
2023-05-11T05:18:40.708Z,41.38
2023-05-11T05:21:07.101Z,41.48
2023-05-11T05:23:33.449Z,41.47
2023-05-11T05:25:59.769Z,41.30
2023-05-11T05:28:26.080Z,41.58
2023-05-11T05:30:52.441Z,41.54
2023-05-11T05:33:18.782Z,41.57
2023-05-11T05:35:46.729Z,41.39
2023-05-11T05:38:13.047Z,41.44
2023-05-11T05:40:39.744Z,41.31
2023-05-11T05:43:06.304Z,41.43
2023-05-11T05:45:32.622Z,41.34
2023-05-11T05:48:00.505Z,41.55
2023-05-11T05:50:27.229Z,41.51
2023-05-11T05:52:53.551Z,41.31
2023-05-11T05:55:20.075Z,41.39
2023-05-11T05:57:46.470Z,41.42
2023-05-11T06:00:13.316Z,41.26
2023-05-11T06:02:39.929Z,41.45
2023-05-11T06:05:06.752Z,41.31
2023-05-11T06:07:33.327Z,41.51
2023-05-11T06:09:59.742Z,41.55
2023-05-11T06:12:26.072Z,41.40
2023-05-11T06:14:52.384Z,41.27
2023-05-11T06:17:18.722Z,41.38
2023-05-11T06:19:45.085Z,41.45
2023-05-11T06:22:11.409Z,41.28
2023-05-11T06:24:37.779Z,41.48
2023-05-11T06:27:04.138Z,41.15
2023-05-11T06:29:30.541Z,41.07
2023-05-11T06:31:56.983Z,41.34
2023-05-11T06:34:23.332Z,41.20
2023-05-11T06:36:49.645Z,41.27
2023-05-11T06:39:16.046Z,41.24
2023-05-11T06:41:42.425Z,41.11
2023-05-11T06:44:08.890Z,41.31
2023-05-11T06:46:35.273Z,41.22
2023-05-11T06:49:02.184Z,41.41
2023-05-11T06:51:28.550Z,41.31
2023-05-11T06:53:54.872Z,41.38
2023-05-11T06:56:21.831Z,41.18
2023-05-11T06:58:48.174Z,41.34
2023-05-11T07:01:14.854Z,41.22
2023-05-11T07:03:41.382Z,41.28
2023-05-11T07:06:07.756Z,41.30
2023-05-11T07:08:34.266Z,41.37
2023-05-11T07:11:00.594Z,41.37
2023-05-11T07:13:26.985Z,41.46
2023-05-11T07:15:55.231Z,41.62
2023-05-11T07:18:23.052Z,41.61
2023-05-11T07:20:50.097Z,41.77
2023-05-11T07:23:17.000Z,41.58
2023-05-11T07:25:43.418Z,41.62
2023-05-11T07:28:09.738Z,41.50
2023-05-11T07:30:36.094Z,42.13
2023-05-11T07:33:03.126Z,42.57
2023-05-11T07:35:29.615Z,42.29
2023-05-11T07:37:55.935Z,42.49
2023-05-11T07:40:22.308Z,42.23
2023-05-11T07:42:48.665Z,42.35
2023-05-11T07:45:14.994Z,42.09
2023-05-11T07:47:41.339Z,42.04
2023-05-11T07:50:08.029Z,42.05
2023-05-11T07:52:34.520Z,42.23
2023-05-11T07:55:00.947Z,41.89
2023-05-11T07:57:27.297Z,42.04
2023-05-11T07:59:53.619Z,42.06
2023-05-11T08:02:19.994Z,41.96
2023-05-11T08:04:46.354Z,41.91
2023-05-11T08:07:12.690Z,41.98
2023-05-11T08:09:39.017Z,42.11
2023-05-11T08:12:05.344Z,42.06
2023-05-11T08:14:32.231Z,42.00
2023-05-11T08:16:58.612Z,42.08
2023-05-11T08:19:24.956Z,42.24
2023-05-11T08:21:51.354Z,42.16
2023-05-11T08:24:17.730Z,42.27
2023-05-11T08:26:44.676Z,42.38
2023-05-11T08:29:11.326Z,42.51
2023-05-11T08:31:37.801Z,42.27
2023-05-11T08:34:05.140Z,42.53
2023-05-11T08:36:37.093Z,42.54
2023-05-11T08:39:03.473Z,42.50
2023-05-11T08:41:29.957Z,42.66
2023-05-11T08:43:56.282Z,42.25
2023-05-11T08:46:23.599Z,42.31
2023-05-11T08:48:50.579Z,42.57
2023-05-11T08:51:16.929Z,42.32
2023-05-11T08:53:43.246Z,42.62
2023-05-11T08:56:09.712Z,42.44
2023-05-11T08:58:38.734Z,42.51
2023-05-11T09:01:05.623Z,42.69
2023-05-11T09:03:33.036Z,42.63
2023-05-11T09:05:59.375Z,42.88
2023-05-11T09:08:25.801Z,43.12
2023-05-11T09:10:52.278Z,43.28
2023-05-11T09:13:18.725Z,42.98
2023-05-11T09:15:45.135Z,43.29
2023-05-11T09:18:11.545Z,43.25
2023-05-11T09:20:37.966Z,42.92
2023-05-11T09:23:04.321Z,43.09
2023-05-11T09:25:33.043Z,43.04
2023-05-11T09:27:59.390Z,43.24
2023-05-11T09:30:25.905Z,43.68
2023-05-11T09:32:55.956Z,43.25
2023-05-11T09:35:23.510Z,43.40
2023-05-11T09:38:02.393Z,43.61
2023-05-11T09:42:59.639Z,43.39
2023-05-11T09:45:36.265Z,43.65
2023-05-11T09:48:03.227Z,43.55
2023-05-11T09:50:33.408Z,43.64
2023-05-11T09:52:59.761Z,43.61
2023-05-11T09:55:26.120Z,43.76
2023-05-11T09:57:55.884Z,43.65
2023-05-11T10:00:22.310Z,43.41
2023-05-11T10:03:03.293Z,43.56
2023-05-11T10:05:31.455Z,43.73
2023-05-11T10:07:59.116Z,43.57
2023-05-11T10:10:25.898Z,43.61
2023-05-11T10:12:52.206Z,43.54
2023-05-11T10:15:19.002Z,43.70
2023-05-11T10:17:45.623Z,43.63
2023-05-11T10:20:12.181Z,43.54
2023-05-11T10:22:38.612Z,43.81
2023-05-11T10:25:06.690Z,43.92
2023-05-11T10:27:33.010Z,43.47
2023-05-11T10:29:59.678Z,44.99
2023-05-11T10:32:26.197Z,47.40
2023-05-11T10:34:52.609Z,48.88
2023-05-11T10:37:20.968Z,47.77
2023-05-11T10:39:49.950Z,47.54
2023-05-11T10:42:39.253Z,47.30
2023-05-11T10:45:14.044Z,46.88
2023-05-11T10:47:49.455Z,46.67
2023-05-11T10:50:18.847Z,46.73
2023-05-11T10:52:50.763Z,46.56
2023-05-11T10:55:39.285Z,46.33
2023-05-11T10:58:08.338Z,46.41
2023-05-11T11:00:35.847Z,46.13
2023-05-11T11:03:09.647Z,46.04
2023-05-11T11:05:38.016Z,45.55
2023-05-11T11:08:04.507Z,45.71
2023-05-11T11:10:34.682Z,45.62
2023-05-11T11:13:07.957Z,45.52
2023-05-11T11:15:52.886Z,45.26
2023-05-11T11:18:20.413Z,45.29
2023-05-11T11:20:50.067Z,45.43
2023-05-11T11:23:41.164Z,45.36
2023-05-11T11:26:08.111Z,45.48
2023-05-11T11:28:53.216Z,45.21
2023-05-11T11:31:22.486Z,45.24
2023-05-11T11:33:48.823Z,45.25
2023-05-11T11:36:16.333Z,45.10
2023-05-11T11:38:56.778Z,45.21
2023-05-11T11:41:29.493Z,44.96
2023-05-11T11:43:55.838Z,45.04
2023-05-11T11:46:28.927Z,44.76
2023-05-11T11:49:08.238Z,44.79
2023-05-11T11:51:34.709Z,44.98
2023-05-11T11:54:01.206Z,44.91
2023-05-11T11:56:30.791Z,44.85
2023-05-11T11:58:58.321Z,44.81
2023-05-11T12:01:26.840Z,44.79
2023-05-11T12:04:11.054Z,44.50
2023-05-11T12:06:37.846Z,44.21
2023-05-11T12:09:05.267Z,44.36
2023-05-11T12:11:31.845Z,44.19
2023-05-11T12:13:58.974Z,44.53
2023-05-11T12:16:25.382Z,44.27
2023-05-11T12:18:52.798Z,44.38
2023-05-11T12:21:22.766Z,44.47
2023-05-11T12:23:55.462Z,44.44
2023-05-11T12:26:22.041Z,44.41
2023-05-11T12:28:51.099Z,43.91
2023-05-11T12:31:17.930Z,44.25
2023-05-11T12:33:47.724Z,44.00
2023-05-11T12:36:14.660Z,43.91
2023-05-11T12:38:44.699Z,44.12
2023-05-11T12:41:11.449Z,43.98
2023-05-11T12:43:37.802Z,43.84
2023-05-11T12:46:04.185Z,44.26
2023-05-11T12:48:30.646Z,44.25
2023-05-11T12:50:57.921Z,43.92
2023-05-11T12:53:24.285Z,43.98
2023-05-11T12:55:59.628Z,43.90
2023-05-11T12:58:25.949Z,44.12
2023-05-11T13:00:54.183Z,44.14
2023-05-11T13:03:30.631Z,43.71
2023-05-11T13:06:09.776Z,43.84
2023-05-11T13:08:39.385Z,43.93
2023-05-11T13:11:18.790Z,43.75
2023-05-11T13:13:45.668Z,43.83
2023-05-11T13:16:12.052Z,43.82
2023-05-11T13:18:38.527Z,43.64
2023-05-11T13:21:07.670Z,43.66
2023-05-11T13:23:34.012Z,43.74
2023-05-11T13:26:00.420Z,43.65
2023-05-11T13:28:26.795Z,43.70
2023-05-11T13:31:01.139Z,43.69
2023-05-11T13:33:27.770Z,43.54
2023-05-11T13:35:54.104Z,43.73
2023-05-11T13:38:20.468Z,43.50
2023-05-11T13:40:46.909Z,43.64
2023-05-11T13:43:13.331Z,43.63
2023-05-11T13:45:41.194Z,43.59
2023-05-11T13:48:07.575Z,43.62
2023-05-11T13:50:34.559Z,43.42
2023-05-11T13:53:01.506Z,43.62
2023-05-11T13:55:28.094Z,43.38
2023-05-11T13:57:54.557Z,43.41
2023-05-11T14:00:20.944Z,43.47
2023-05-11T14:02:49.652Z,43.45
2023-05-11T14:05:16.806Z,43.21
2023-05-11T14:07:48.438Z,43.19
2023-05-11T14:10:15.813Z,43.13
2023-05-11T14:12:42.169Z,43.41
2023-05-11T14:15:08.835Z,43.39
2023-05-11T14:17:35.368Z,43.39
2023-05-11T14:20:01.753Z,43.21
2023-05-11T14:22:31.096Z,43.37
2023-05-11T14:24:57.459Z,43.22
2023-05-11T14:27:23.788Z,43.34
2023-05-11T14:29:52.171Z,43.42
2023-05-11T14:32:19.376Z,42.92
2023-05-11T14:34:45.774Z,43.07
2023-05-11T14:37:13.135Z,43.10
2023-05-11T14:39:40.343Z,43.24
2023-05-11T14:42:06.778Z,43.25
2023-05-11T14:44:33.162Z,43.10
2023-05-11T14:46:59.505Z,43.04
2023-05-11T14:49:25.814Z,43.23
2023-05-11T14:51:52.135Z,43.25
2023-05-11T14:54:18.470Z,43.00
2023-05-11T14:56:51.182Z,43.25
2023-05-11T14:59:17.571Z,42.98
2023-05-11T15:01:43.967Z,43.20
2023-05-11T15:04:10.781Z,43.12
2023-05-11T15:06:37.143Z,42.92
2023-05-11T15:09:04.205Z,42.94
2023-05-11T15:11:30.536Z,42.92
2023-05-11T15:13:56.952Z,42.86
2023-05-11T15:16:23.316Z,42.99
2023-05-11T15:18:49.720Z,43.27
2023-05-11T15:21:16.290Z,43.01
2023-05-11T15:23:42.625Z,42.94
2023-05-11T15:26:09.002Z,42.99
2023-05-11T15:28:35.387Z,42.95
2023-05-11T15:31:01.746Z,43.08
2023-05-11T15:33:28.343Z,43.19
2023-05-11T15:35:54.663Z,43.02
2023-05-11T15:38:21.413Z,43.24
2023-05-11T15:40:47.764Z,43.10
2023-05-11T15:43:14.217Z,43.04
2023-05-11T15:45:40.584Z,42.94
2023-05-11T15:48:07.458Z,43.24
2023-05-11T15:50:33.867Z,43.00
2023-05-11T15:53:00.987Z,43.09
2023-05-11T15:55:27.365Z,43.01
2023-05-11T15:57:53.715Z,43.09
2023-05-11T16:00:20.268Z,43.01
2023-05-11T16:02:48.917Z,43.01
2023-05-11T16:05:15.458Z,42.95
2023-05-11T16:07:41.759Z,42.96
2023-05-11T16:10:08.208Z,42.80
2023-05-11T16:12:34.631Z,43.08
2023-05-11T16:15:01.002Z,42.86
2023-05-11T16:17:27.327Z,42.85
2023-05-11T16:19:53.704Z,42.79
2023-05-11T16:22:20.011Z,42.75
2023-05-11T16:24:46.383Z,42.91
2023-05-11T16:27:13.066Z,42.97
2023-05-11T16:29:39.387Z,42.86
2023-05-11T16:32:05.800Z,42.89
2023-05-11T16:34:32.182Z,42.75
2023-05-11T16:36:59.371Z,42.81
2023-05-11T16:39:25.803Z,42.68
2023-05-11T16:41:52.141Z,42.74
2023-05-11T16:44:18.454Z,42.68
2023-05-11T16:46:44.810Z,42.90
2023-05-11T16:49:11.205Z,42.73
2023-05-11T16:51:37.777Z,42.78
2023-05-11T16:54:04.096Z,42.64
2023-05-11T16:56:30.736Z,42.79
2023-05-11T16:58:57.572Z,42.81
2023-05-11T17:01:24.655Z,42.75
2023-05-11T17:03:51.037Z,42.85
2023-05-11T17:06:20.918Z,42.96
2023-05-11T17:08:47.391Z,42.90
2023-05-11T17:11:14.309Z,42.71
2023-05-11T17:13:40.650Z,42.91
2023-05-11T17:16:07.185Z,42.97
2023-05-11T17:18:33.993Z,42.71
2023-05-11T17:21:00.717Z,42.86
2023-05-11T17:23:27.082Z,42.96
2023-05-11T17:25:54.205Z,42.73
2023-05-11T17:28:21.160Z,42.89
2023-05-11T17:30:50.920Z,42.73
2023-05-11T17:33:17.456Z,42.97
2023-05-11T17:35:43.940Z,42.76
2023-05-11T17:38:11.460Z,42.68
2023-05-11T17:40:37.980Z,42.81
2023-05-11T17:43:04.322Z,42.67
2023-05-11T17:45:30.701Z,42.67
2023-05-11T17:47:57.188Z,42.73
2023-05-11T17:50:23.585Z,42.75
2023-05-11T17:52:51.184Z,42.63
2023-05-11T17:55:18.057Z,42.82
2023-05-11T17:57:44.606Z,42.65
2023-05-11T18:00:11.149Z,42.71
2023-05-11T18:02:37.583Z,42.78
2023-05-11T18:05:04.079Z,42.72
2023-05-11T18:07:30.390Z,42.88
2023-05-11T18:09:56.927Z,42.68
2023-05-11T18:12:24.070Z,42.74
2023-05-11T18:14:50.483Z,42.61
2023-05-11T18:17:17.102Z,42.92
2023-05-11T18:19:43.503Z,42.88
2023-05-11T18:22:09.882Z,42.63
2023-05-11T18:24:36.224Z,42.85
2023-05-11T18:27:02.578Z,42.81
2023-05-11T18:29:28.971Z,42.82
2023-05-11T18:31:55.437Z,42.94
2023-05-11T18:34:22.576Z,42.96
2023-05-11T18:36:48.897Z,42.96
2023-05-11T18:39:15.911Z,42.75
2023-05-11T18:41:42.389Z,42.84
2023-05-11T18:44:08.703Z,43.00
2023-05-11T18:46:35.331Z,43.02
2023-05-11T18:49:01.921Z,43.07
2023-05-11T18:51:28.854Z,42.95
2023-05-11T18:53:55.174Z,43.03
2023-05-11T18:56:22.313Z,42.79
2023-05-11T18:58:50.255Z,42.94
2023-05-11T19:01:17.998Z,42.91
2023-05-11T19:03:44.468Z,43.00
2023-05-11T19:06:11.818Z,43.04
2023-05-11T19:08:38.165Z,43.07
2023-05-11T19:11:07.930Z,43.02
2023-05-11T19:13:34.357Z,42.78
2023-05-11T19:16:00.889Z,42.82
2023-05-11T19:18:27.358Z,42.96
2023-05-11T19:20:53.743Z,42.79
2023-05-11T19:23:20.047Z,42.80
2023-05-11T19:25:46.368Z,42.76
2023-05-11T19:28:12.714Z,43.00
2023-05-11T19:30:39.023Z,42.77
2023-05-11T19:33:05.386Z,42.82
2023-05-11T19:35:32.039Z,42.95
2023-05-11T19:37:58.368Z,43.08
2023-05-11T19:42:54.493Z,42.76
2023-05-11T19:45:20.892Z,42.93
2023-05-11T19:47:47.278Z,43.06
2023-05-11T19:50:14.597Z,43.05
2023-05-11T19:52:41.058Z,42.97
2023-05-11T19:55:07.543Z,42.73
2023-05-11T19:57:37.201Z,42.77
2023-05-11T20:00:06.635Z,42.77
2023-05-11T20:02:33.226Z,42.86
2023-05-11T20:04:59.708Z,42.56
2023-05-11T20:07:27.435Z,42.71
2023-05-11T20:09:53.878Z,42.76
2023-05-11T20:12:20.295Z,42.64
2023-05-11T20:14:46.676Z,42.70
2023-05-11T20:17:12.999Z,42.76
2023-05-11T20:19:39.309Z,42.81
2023-05-11T20:22:05.682Z,42.58
2023-05-11T20:24:31.994Z,42.90
2023-05-11T20:26:58.315Z,42.70
2023-05-11T20:29:24.694Z,42.96
2023-05-11T20:31:51.058Z,42.70
2023-05-11T20:34:17.496Z,42.78
2023-05-11T20:36:44.124Z,42.99
2023-05-11T20:39:10.510Z,42.90
2023-05-11T20:41:36.828Z,43.19
2023-05-11T20:44:03.873Z,43.35
2023-05-11T20:46:30.220Z,43.47
2023-05-11T20:48:56.735Z,43.78
2023-05-11T20:51:23.348Z,43.83
2023-05-11T20:53:50.200Z,43.96
2023-05-11T20:56:16.525Z,44.10
2023-05-11T20:58:42.881Z,44.37
2023-05-11T21:01:09.296Z,44.38
2023-05-11T21:03:35.767Z,44.48
2023-05-11T21:06:02.085Z,44.27
2023-05-11T21:08:28.405Z,44.23
2023-05-11T21:10:54.751Z,44.46
2023-05-11T21:13:21.075Z,44.76
2023-05-11T21:15:47.388Z,44.81
2023-05-11T21:18:13.727Z,45.26
2023-05-11T21:20:40.143Z,45.14
2023-05-11T21:23:06.500Z,44.99
2023-05-11T21:25:32.827Z,44.89
2023-05-11T21:28:00.826Z,44.92
2023-05-11T21:30:27.948Z,45.00
2023-05-11T21:32:54.301Z,44.95
2023-05-11T21:35:20.804Z,45.00
2023-05-11T21:37:49.534Z,44.59
2023-05-11T21:40:16.375Z,44.91
2023-05-11T21:42:42.787Z,45.11
2023-05-11T21:45:09.576Z,44.92
2023-05-11T21:47:36.238Z,44.84
2023-05-11T21:50:02.981Z,45.08
2023-05-11T21:52:29.297Z,44.55
2023-05-11T21:54:55.849Z,44.77
2023-05-11T21:57:22.270Z,44.82
2023-05-11T21:59:50.511Z,45.08
2023-05-11T22:02:17.598Z,44.82
2023-05-11T22:04:45.370Z,44.69
2023-05-11T22:07:11.796Z,44.92
2023-05-11T22:09:38.141Z,44.65
2023-05-11T22:12:04.939Z,44.81
2023-05-11T22:14:31.263Z,44.84
2023-05-11T22:16:58.256Z,44.95
2023-05-11T22:19:24.604Z,44.71
2023-05-11T22:21:50.938Z,44.92
2023-05-11T22:24:17.275Z,45.15
2023-05-11T22:26:43.737Z,45.07
2023-05-11T22:29:10.059Z,45.05
2023-05-11T22:31:36.935Z,44.99
2023-05-11T22:34:03.268Z,44.75
2023-05-11T22:36:29.674Z,44.90
2023-05-11T22:38:56.499Z,44.95
2023-05-11T22:41:25.732Z,44.90
2023-05-11T22:43:52.085Z,44.83
2023-05-11T22:46:18.442Z,45.05
2023-05-11T22:48:45.106Z,44.89
2023-05-11T22:51:11.427Z,44.99
2023-05-11T22:53:37.740Z,44.83
2023-05-11T22:56:04.985Z,44.66
2023-05-11T22:58:31.311Z,44.65
2023-05-11T23:00:58.154Z,44.57
2023-05-11T23:03:25.673Z,44.48
2023-05-11T23:05:51.993Z,44.89
2023-05-11T23:08:18.386Z,44.76
2023-05-11T23:10:44.716Z,44.56
2023-05-11T23:13:11.582Z,44.81
2023-05-11T23:15:38.104Z,44.51
2023-05-11T23:18:04.715Z,44.70
2023-05-11T23:20:31.044Z,44.64
2023-05-11T23:22:57.382Z,44.74
2023-05-11T23:25:25.718Z,44.70
2023-05-11T23:27:54.620Z,44.58
2023-05-11T23:30:21.428Z,44.63
2023-05-11T23:32:48.183Z,44.48
2023-05-11T23:35:14.823Z,44.47
2023-05-11T23:37:41.308Z,44.32
2023-05-11T23:40:08.468Z,44.28
2023-05-11T23:42:34.776Z,44.43
2023-05-11T23:45:04.738Z,44.29
2023-05-11T23:47:31.446Z,44.25
2023-05-11T23:49:58.239Z,44.17
2023-05-11T23:52:24.553Z,44.26
2023-05-11T23:54:52.443Z,44.42
2023-05-11T23:57:18.938Z,44.20
2023-05-11T23:59:45.274Z,44.23
